sensor_id;sensor_type;location;lat;lon;timestamp;P1;durP1;ratioP1;P2;durP2;ratioP2
19927;SDS011;10126;50.876;4.470;2023-06-24T00:01:53;0.10;;;0.10;;
19927;SDS011;10126;50.876;4.470;2023-06-24T00:03:58;0.10;;;0.10;;
19927;SDS011;10126;50.876;4.470;2023-06-24T00:05:58;0.10;;;0.10;;
19927;SDS011;10126;50.876;4.470;2023-06-24T00:08:03;0.10;;;0.10;;
19927;SDS011;10126;50.876;4.470;2023-06-24T00:10:07;0.10;;;0.10;;
19927;SDS011;10126;50.876;4.470;2023-06-24T00:12:08;0.10;;;0.10;;
19927;SDS011;10126;50.876;4.470;2023-06-24T00:14:08;0.03;;;0.03;;
19927;SDS011;10126;50.876;4.470;2023-06-24T00:16:10;0.10;;;0.10;;
19927;SDS011;10126;50.876;4.470;2023-06-24T00:18:11;0.10;;;0.10;;
19927;SDS011;10126;50.876;4.470;2023-06-24T00:20:12;0.10;;;0.10;;
19927;SDS011;10126;50.876;4.470;2023-06-24T00:22:14;0.10;;;0.10;;
19927;SDS011;10126;50.876;4.470;2023-06-24T00:24:15;0.10;;;0.10;;
19927;SDS011;10126;50.876;4.470;2023-06-24T00:26:17;0.10;;;0.10;;
19927;SDS011;10126;50.876;4.470;2023-06-24T00:28:18;0.10;;;0.10;;
19927;SDS011;10126;50.876;4.470;2023-06-24T00:30:18;0.10;;;0.10;;
19927;SDS011;10126;50.876;4.470;2023-06-24T00:32:19;0.10;;;0.10;;
19927;SDS011;10126;50.876;4.470;2023-06-24T00:34:20;0.07;;;0.07;;
19927;SDS011;10126;50.876;4.470;2023-06-24T00:36:20;0.10;;;0.10;;
19927;SDS011;10126;50.876;4.470;2023-06-24T00:38:21;0.10;;;0.10;;
19927;SDS011;10126;50.876;4.470;2023-06-24T00:40:22;0.10;;;0.10;;
19927;SDS011;10126;50.876;4.470;2023-06-24T00:42:22;0.10;;;0.10;;
19927;SDS011;10126;50.876;4.470;2023-06-24T00:44:23;0.00;;;0.00;;
19927;SDS011;10126;50.876;4.470;2023-06-24T00:46:24;0.10;;;0.10;;
19927;SDS011;10126;50.876;4.470;2023-06-24T00:48:25;0.10;;;0.10;;
19927;SDS011;10126;50.876;4.470;2023-06-24T00:50:26;0.10;;;0.10;;
19927;SDS011;10126;50.876;4.470;2023-06-24T00:52:27;0.10;;;0.10;;
19927;SDS011;10126;50.876;4.470;2023-06-24T00:54:28;0.10;;;0.10;;
19927;SDS011;10126;50.876;4.470;2023-06-24T00:56:31;0.10;;;0.10;;
19927;SDS011;10126;50.876;4.470;2023-06-24T00:58:34;0.10;;;0.10;;
19927;SDS011;10126;50.876;4.470;2023-06-24T01:00:37;0.10;;;0.10;;
19927;SDS011;10126;50.876;4.470;2023-06-24T01:02:37;0.10;;;0.10;;
19927;SDS011;10126;50.876;4.470;2023-06-24T01:04:38;0.10;;;0.10;;
19927;SDS011;10126;50.876;4.470;2023-06-24T01:06:39;0.10;;;0.10;;
19927;SDS011;10126;50.876;4.470;2023-06-24T01:08:43;0.10;;;0.10;;
19927;SDS011;10126;50.876;4.470;2023-06-24T01:10:50;0.10;;;0.10;;
19927;SDS011;10126;50.876;4.470;2023-06-24T01:12:51;0.10;;;0.10;;
19927;SDS011;10126;50.876;4.470;2023-06-24T01:14:52;0.10;;;0.10;;
19927;SDS011;10126;50.876;4.470;2023-06-24T01:19:00;0.10;;;0.10;;
19927;SDS011;10126;50.876;4.470;2023-06-24T01:21:33;0.10;;;0.10;;
19927;SDS011;10126;50.876;4.470;2023-06-24T01:33:46;0.10;;;0.10;;
19927;SDS011;10126;50.876;4.470;2023-06-24T01:35:51;0.10;;;0.10;;
19927;SDS011;10126;50.876;4.470;2023-06-24T01:37:54;0.10;;;0.10;;
19927;SDS011;10126;50.876;4.470;2023-06-24T01:40:12;0.10;;;0.10;;
19927;SDS011;10126;50.876;4.470;2023-06-24T01:42:25;0.10;;;0.10;;
19927;SDS011;10126;50.876;4.470;2023-06-24T01:44:29;0.10;;;0.10;;
19927;SDS011;10126;50.876;4.470;2023-06-24T01:46:31;0.20;;;0.20;;
19927;SDS011;10126;50.876;4.470;2023-06-24T01:48:34;0.10;;;0.10;;
19927;SDS011;10126;50.876;4.470;2023-06-24T01:50:37;0.10;;;0.10;;
19927;SDS011;10126;50.876;4.470;2023-06-24T01:52:43;0.20;;;0.20;;
19927;SDS011;10126;50.876;4.470;2023-06-24T01:54:44;0.10;;;0.10;;
19927;SDS011;10126;50.876;4.470;2023-06-24T01:56:47;0.10;;;0.10;;
19927;SDS011;10126;50.876;4.470;2023-06-24T01:58:50;0.13;;;0.13;;
19927;SDS011;10126;50.876;4.470;2023-06-24T02:00:53;0.10;;;0.10;;
19927;SDS011;10126;50.876;4.470;2023-06-24T02:02:55;0.10;;;0.10;;
19927;SDS011;10126;50.876;4.470;2023-06-24T02:04:56;0.10;;;0.10;;
19927;SDS011;10126;50.876;4.470;2023-06-24T02:06:59;0.20;;;0.20;;
19927;SDS011;10126;50.876;4.470;2023-06-24T02:09:02;0.10;;;0.10;;
19927;SDS011;10126;50.876;4.470;2023-06-24T02:11:04;0.10;;;0.10;;
19927;SDS011;10126;50.876;4.470;2023-06-24T02:13:06;0.10;;;0.10;;
19927;SDS011;10126;50.876;4.470;2023-06-24T02:15:09;0.10;;;0.10;;
19927;SDS011;10126;50.876;4.470;2023-06-24T02:17:10;0.10;;;0.10;;
19927;SDS011;10126;50.876;4.470;2023-06-24T02:19:12;0.10;;;0.10;;
19927;SDS011;10126;50.876;4.470;2023-06-24T02:21:17;0.10;;;0.10;;
19927;SDS011;10126;50.876;4.470;2023-06-24T02:23:20;0.10;;;0.10;;
19927;SDS011;10126;50.876;4.470;2023-06-24T02:25:23;0.20;;;0.20;;
19927;SDS011;10126;50.876;4.470;2023-06-24T02:27:25;0.10;;;0.10;;
19927;SDS011;10126;50.876;4.470;2023-06-24T02:29:26;0.10;;;0.10;;
19927;SDS011;10126;50.876;4.470;2023-06-24T02:31:28;0.10;;;0.10;;
19927;SDS011;10126;50.876;4.470;2023-06-24T02:33:29;0.10;;;0.10;;
19927;SDS011;10126;50.876;4.470;2023-06-24T02:35:30;0.20;;;0.20;;
19927;SDS011;10126;50.876;4.470;2023-06-24T02:37:30;0.10;;;0.10;;
19927;SDS011;10126;50.876;4.470;2023-06-24T02:39:31;0.10;;;0.10;;
19927;SDS011;10126;50.876;4.470;2023-06-24T02:41:32;0.10;;;0.10;;
19927;SDS011;10126;50.876;4.470;2023-06-24T02:43:32;0.10;;;0.10;;
19927;SDS011;10126;50.876;4.470;2023-06-24T02:45:35;0.17;;;0.17;;
19927;SDS011;10126;50.876;4.470;2023-06-24T02:47:36;0.20;;;0.20;;
19927;SDS011;10126;50.876;4.470;2023-06-24T02:49:38;0.10;;;0.10;;
19927;SDS011;10126;50.876;4.470;2023-06-24T02:51:40;0.10;;;0.10;;
19927;SDS011;10126;50.876;4.470;2023-06-24T02:53:41;0.10;;;0.10;;
19927;SDS011;10126;50.876;4.470;2023-06-24T02:55:43;0.10;;;0.10;;
19927;SDS011;10126;50.876;4.470;2023-06-24T02:57:45;0.10;;;0.10;;
19927;SDS011;10126;50.876;4.470;2023-06-24T02:59:47;0.20;;;0.20;;
19927;SDS011;10126;50.876;4.470;2023-06-24T03:01:48;0.10;;;0.10;;
19927;SDS011;10126;50.876;4.470;2023-06-24T03:03:53;0.20;;;0.20;;
19927;SDS011;10126;50.876;4.470;2023-06-24T03:05:55;0.13;;;0.13;;
19927;SDS011;10126;50.876;4.470;2023-06-24T03:07:58;0.20;;;0.20;;
19927;SDS011;10126;50.876;4.470;2023-06-24T03:10:01;0.13;;;0.13;;
19927;SDS011;10126;50.876;4.470;2023-06-24T03:12:03;0.10;;;0.10;;
19927;SDS011;10126;50.876;4.470;2023-06-24T03:14:05;0.17;;;0.17;;
19927;SDS011;10126;50.876;4.470;2023-06-24T03:16:06;0.10;;;0.10;;
19927;SDS011;10126;50.876;4.470;2023-06-24T03:18:12;0.10;;;0.10;;
19927;SDS011;10126;50.876;4.470;2023-06-24T03:20:12;0.10;;;0.10;;
19927;SDS011;10126;50.876;4.470;2023-06-24T03:22:13;0.20;;;0.20;;
19927;SDS011;10126;50.876;4.470;2023-06-24T03:24:14;0.10;;;0.10;;
19927;SDS011;10126;50.876;4.470;2023-06-24T03:26:14;0.20;;;0.20;;
19927;SDS011;10126;50.876;4.470;2023-06-24T03:28:15;0.13;;;0.13;;
19927;SDS011;10126;50.876;4.470;2023-06-24T03:30:15;0.20;;;0.20;;
19927;SDS011;10126;50.876;4.470;2023-06-24T03:32:16;0.20;;;0.20;;
19927;SDS011;10126;50.876;4.470;2023-06-24T03:34:17;0.20;;;0.20;;
19927;SDS011;10126;50.876;4.470;2023-06-24T03:36:17;0.13;;;0.13;;
19927;SDS011;10126;50.876;4.470;2023-06-24T03:38:18;0.10;;;0.10;;
19927;SDS011;10126;50.876;4.470;2023-06-24T03:40:19;0.10;;;0.10;;
19927;SDS011;10126;50.876;4.470;2023-06-24T03:42:20;0.10;;;0.10;;
19927;SDS011;10126;50.876;4.470;2023-06-24T03:44:21;0.10;;;0.10;;
19927;SDS011;10126;50.876;4.470;2023-06-24T03:46:21;0.10;;;0.10;;
19927;SDS011;10126;50.876;4.470;2023-06-24T03:48:22;0.10;;;0.10;;
19927;SDS011;10126;50.876;4.470;2023-06-24T03:50:23;0.20;;;0.20;;
19927;SDS011;10126;50.876;4.470;2023-06-24T03:52:24;0.20;;;0.20;;
19927;SDS011;10126;50.876;4.470;2023-06-24T03:54:25;0.10;;;0.10;;
19927;SDS011;10126;50.876;4.470;2023-06-24T03:56:26;0.20;;;0.20;;
19927;SDS011;10126;50.876;4.470;2023-06-24T03:58:26;0.17;;;0.17;;
19927;SDS011;10126;50.876;4.470;2023-06-24T04:00:27;0.10;;;0.10;;
19927;SDS011;10126;50.876;4.470;2023-06-24T04:02:27;0.20;;;0.20;;
19927;SDS011;10126;50.876;4.470;2023-06-24T04:04:29;0.10;;;0.10;;
19927;SDS011;10126;50.876;4.470;2023-06-24T04:06:30;0.10;;;0.10;;
19927;SDS011;10126;50.876;4.470;2023-06-24T04:08:30;0.10;;;0.10;;
19927;SDS011;10126;50.876;4.470;2023-06-24T04:10:31;0.17;;;0.17;;
19927;SDS011;10126;50.876;4.470;2023-06-24T04:12:32;0.10;;;0.10;;
19927;SDS011;10126;50.876;4.470;2023-06-24T04:14:32;0.13;;;0.13;;
19927;SDS011;10126;50.876;4.470;2023-06-24T04:16:33;0.10;;;0.10;;
19927;SDS011;10126;50.876;4.470;2023-06-24T04:18:34;0.10;;;0.10;;
19927;SDS011;10126;50.876;4.470;2023-06-24T04:20:37;0.17;;;0.17;;
19927;SDS011;10126;50.876;4.470;2023-06-24T04:22:37;0.10;;;0.10;;
19927;SDS011;10126;50.876;4.470;2023-06-24T04:24:41;0.10;;;0.10;;
19927;SDS011;10126;50.876;4.470;2023-06-24T04:26:41;0.10;;;0.10;;
19927;SDS011;10126;50.876;4.470;2023-06-24T04:28:42;0.10;;;0.10;;
19927;SDS011;10126;50.876;4.470;2023-06-24T04:30:43;0.10;;;0.10;;
19927;SDS011;10126;50.876;4.470;2023-06-24T04:32:43;0.30;;;0.30;;
19927;SDS011;10126;50.876;4.470;2023-06-24T04:34:44;0.10;;;0.10;;
19927;SDS011;10126;50.876;4.470;2023-06-24T04:36:44;0.10;;;0.10;;
19927;SDS011;10126;50.876;4.470;2023-06-24T04:38:48;0.10;;;0.10;;
19927;SDS011;10126;50.876;4.470;2023-06-24T04:40:48;0.10;;;0.10;;
19927;SDS011;10126;50.876;4.470;2023-06-24T04:42:49;0.10;;;0.10;;
19927;SDS011;10126;50.876;4.470;2023-06-24T04:44:50;0.10;;;0.10;;
19927;SDS011;10126;50.876;4.470;2023-06-24T04:46:51;0.10;;;0.10;;
19927;SDS011;10126;50.876;4.470;2023-06-24T04:48:52;0.10;;;0.10;;
19927;SDS011;10126;50.876;4.470;2023-06-24T04:50:53;0.00;;;0.00;;
19927;SDS011;10126;50.876;4.470;2023-06-24T04:52:54;0.00;;;0.00;;
19927;SDS011;10126;50.876;4.470;2023-06-24T04:54:56;0.05;;;0.05;;
19927;SDS011;10126;50.876;4.470;2023-06-24T04:56:57;0.00;;;0.00;;
19927;SDS011;10126;50.876;4.470;2023-06-24T04:58:57;0.00;;;0.00;;
19927;SDS011;10126;50.876;4.470;2023-06-24T05:00:58;0.00;;;0.00;;
19927;SDS011;10126;50.876;4.470;2023-06-24T05:02:59;0.00;;;0.00;;
19927;SDS011;10126;50.876;4.470;2023-06-24T05:04:59;0.00;;;0.00;;
19927;SDS011;10126;50.876;4.470;2023-06-24T05:07:00;0.00;;;0.00;;
19927;SDS011;10126;50.876;4.470;2023-06-24T05:09:01;0.00;;;0.00;;
19927;SDS011;10126;50.876;4.470;2023-06-24T05:11:01;0.10;;;0.10;;
19927;SDS011;10126;50.876;4.470;2023-06-24T05:13:02;0.00;;;0.00;;
19927;SDS011;10126;50.876;4.470;2023-06-24T05:15:03;0.00;;;0.00;;
19927;SDS011;10126;50.876;4.470;2023-06-24T05:17:04;0.00;;;0.00;;
19927;SDS011;10126;50.876;4.470;2023-06-24T05:19:05;0.00;;;0.00;;
19927;SDS011;10126;50.876;4.470;2023-06-24T05:21:05;0.00;;;0.00;;
19927;SDS011;10126;50.876;4.470;2023-06-24T05:23:06;0.00;;;0.00;;
19927;SDS011;10126;50.876;4.470;2023-06-24T05:25:07;0.03;;;0.03;;
19927;SDS011;10126;50.876;4.470;2023-06-24T05:27:08;0.00;;;0.00;;
19927;SDS011;10126;50.876;4.470;2023-06-24T05:29:08;0.00;;;0.00;;
19927;SDS011;10126;50.876;4.470;2023-06-24T05:31:10;0.00;;;0.00;;
19927;SDS011;10126;50.876;4.470;2023-06-24T05:33:11;0.00;;;0.00;;
19927;SDS011;10126;50.876;4.470;2023-06-24T05:35:11;0.00;;;0.00;;
19927;SDS011;10126;50.876;4.470;2023-06-24T05:37:12;0.00;;;0.00;;
19927;SDS011;10126;50.876;4.470;2023-06-24T05:39:13;0.00;;;0.00;;
19927;SDS011;10126;50.876;4.470;2023-06-24T05:41:14;0.00;;;0.00;;
19927;SDS011;10126;50.876;4.470;2023-06-24T05:43:15;0.00;;;0.00;;
19927;SDS011;10126;50.876;4.470;2023-06-24T05:45:16;0.00;;;0.00;;
19927;SDS011;10126;50.876;4.470;2023-06-24T05:47:16;0.00;;;0.00;;
19927;SDS011;10126;50.876;4.470;2023-06-24T05:49:17;0.00;;;0.00;;
19927;SDS011;10126;50.876;4.470;2023-06-24T05:51:17;0.00;;;0.00;;
19927;SDS011;10126;50.876;4.470;2023-06-24T05:53:18;0.00;;;0.00;;
19927;SDS011;10126;50.876;4.470;2023-06-24T05:55:19;0.00;;;0.00;;
19927;SDS011;10126;50.876;4.470;2023-06-24T05:57:19;0.00;;;0.00;;
19927;SDS011;10126;50.876;4.470;2023-06-24T05:59:20;0.00;;;0.00;;
19927;SDS011;10126;50.876;4.470;2023-06-24T06:01:21;0.00;;;0.00;;
19927;SDS011;10126;50.876;4.470;2023-06-24T06:03:21;0.00;;;0.00;;
19927;SDS011;10126;50.876;4.470;2023-06-24T06:05:22;0.00;;;0.00;;
19927;SDS011;10126;50.876;4.470;2023-06-24T06:07:23;0.00;;;0.00;;
19927;SDS011;10126;50.876;4.470;2023-06-24T06:09:23;0.00;;;0.00;;
19927;SDS011;10126;50.876;4.470;2023-06-24T06:11:24;0.00;;;0.00;;
19927;SDS011;10126;50.876;4.470;2023-06-24T06:13:25;0.00;;;0.00;;
19927;SDS011;10126;50.876;4.470;2023-06-24T06:15:28;0.00;;;0.00;;
19927;SDS011;10126;50.876;4.470;2023-06-24T06:17:28;0.00;;;0.00;;
19927;SDS011;10126;50.876;4.470;2023-06-24T06:19:29;0.00;;;0.00;;
19927;SDS011;10126;50.876;4.470;2023-06-24T06:21:30;0.00;;;0.00;;
19927;SDS011;10126;50.876;4.470;2023-06-24T06:23:30;0.00;;;0.00;;
19927;SDS011;10126;50.876;4.470;2023-06-24T06:25:31;0.00;;;0.00;;
19927;SDS011;10126;50.876;4.470;2023-06-24T06:27:32;0.00;;;0.00;;
19927;SDS011;10126;50.876;4.470;2023-06-24T06:29:33;0.00;;;0.00;;
19927;SDS011;10126;50.876;4.470;2023-06-24T06:31:33;0.00;;;0.00;;
19927;SDS011;10126;50.876;4.470;2023-06-24T06:33:34;0.00;;;0.00;;
19927;SDS011;10126;50.876;4.470;2023-06-24T06:35:34;0.00;;;0.00;;
19927;SDS011;10126;50.876;4.470;2023-06-24T06:37:35;0.00;;;0.00;;
19927;SDS011;10126;50.876;4.470;2023-06-24T06:39:36;0.00;;;0.00;;
19927;SDS011;10126;50.876;4.470;2023-06-24T06:41:36;0.00;;;0.00;;
19927;SDS011;10126;50.876;4.470;2023-06-24T06:43:40;0.00;;;0.00;;
19927;SDS011;10126;50.876;4.470;2023-06-24T06:45:41;0.00;;;0.00;;
19927;SDS011;10126;50.876;4.470;2023-06-24T06:47:41;0.00;;;0.00;;
19927;SDS011;10126;50.876;4.470;2023-06-24T06:49:42;0.00;;;0.00;;
19927;SDS011;10126;50.876;4.470;2023-06-24T06:51:43;0.00;;;0.00;;
19927;SDS011;10126;50.876;4.470;2023-06-24T06:53:43;0.00;;;0.00;;
19927;SDS011;10126;50.876;4.470;2023-06-24T06:55:44;0.00;;;0.00;;
19927;SDS011;10126;50.876;4.470;2023-06-24T06:57:45;0.00;;;0.00;;
19927;SDS011;10126;50.876;4.470;2023-06-24T06:59:46;0.00;;;0.00;;
19927;SDS011;10126;50.876;4.470;2023-06-24T07:01:46;0.00;;;0.00;;
19927;SDS011;10126;50.876;4.470;2023-06-24T07:03:48;0.00;;;0.00;;
19927;SDS011;10126;50.876;4.470;2023-06-24T07:05:49;0.00;;;0.00;;
19927;SDS011;10126;50.876;4.470;2023-06-24T07:07:50;0.00;;;0.00;;
19927;SDS011;10126;50.876;4.470;2023-06-24T07:09:50;0.00;;;0.00;;
19927;SDS011;10126;50.876;4.470;2023-06-24T07:11:51;0.00;;;0.00;;
19927;SDS011;10126;50.876;4.470;2023-06-24T07:13:52;0.00;;;0.00;;
19927;SDS011;10126;50.876;4.470;2023-06-24T07:15:52;0.00;;;0.00;;
19927;SDS011;10126;50.876;4.470;2023-06-24T07:17:53;0.00;;;0.00;;
19927;SDS011;10126;50.876;4.470;2023-06-24T07:19:54;0.00;;;0.00;;
19927;SDS011;10126;50.876;4.470;2023-06-24T07:21:54;0.00;;;0.00;;
19927;SDS011;10126;50.876;4.470;2023-06-24T07:23:58;0.00;;;0.00;;
19927;SDS011;10126;50.876;4.470;2023-06-24T07:25:58;0.00;;;0.00;;
19927;SDS011;10126;50.876;4.470;2023-06-24T07:27:59;0.00;;;0.00;;
19927;SDS011;10126;50.876;4.470;2023-06-24T07:30:00;0.00;;;0.00;;
19927;SDS011;10126;50.876;4.470;2023-06-24T07:32:01;0.00;;;0.00;;
19927;SDS011;10126;50.876;4.470;2023-06-24T07:34:02;0.00;;;0.00;;
19927;SDS011;10126;50.876;4.470;2023-06-24T07:36:02;0.00;;;0.00;;
19927;SDS011;10126;50.876;4.470;2023-06-24T07:38:03;0.00;;;0.00;;
19927;SDS011;10126;50.876;4.470;2023-06-24T07:40:05;0.00;;;0.00;;
19927;SDS011;10126;50.876;4.470;2023-06-24T07:42:09;0.00;;;0.00;;
19927;SDS011;10126;50.876;4.470;2023-06-24T07:44:09;0.00;;;0.00;;
19927;SDS011;10126;50.876;4.470;2023-06-24T07:46:10;0.00;;;0.00;;
19927;SDS011;10126;50.876;4.470;2023-06-24T07:48:11;0.00;;;0.00;;
19927;SDS011;10126;50.876;4.470;2023-06-24T07:50:12;0.00;;;0.00;;
19927;SDS011;10126;50.876;4.470;2023-06-24T07:52:12;0.00;;;0.00;;
19927;SDS011;10126;50.876;4.470;2023-06-24T07:54:13;0.00;;;0.00;;
19927;SDS011;10126;50.876;4.470;2023-06-24T07:56:14;0.00;;;0.00;;
19927;SDS011;10126;50.876;4.470;2023-06-24T07:58:15;0.00;;;0.00;;
19927;SDS011;10126;50.876;4.470;2023-06-24T08:00:16;0.00;;;0.00;;
19927;SDS011;10126;50.876;4.470;2023-06-24T08:02:17;0.00;;;0.00;;
19927;SDS011;10126;50.876;4.470;2023-06-24T08:04:17;0.00;;;0.00;;
19927;SDS011;10126;50.876;4.470;2023-06-24T08:06:21;0.00;;;0.00;;
19927;SDS011;10126;50.876;4.470;2023-06-24T08:08:22;0.00;;;0.00;;
19927;SDS011;10126;50.876;4.470;2023-06-24T08:10:23;0.00;;;0.00;;
19927;SDS011;10126;50.876;4.470;2023-06-24T08:12:23;0.00;;;0.00;;
19927;SDS011;10126;50.876;4.470;2023-06-24T08:14:24;0.00;;;0.00;;
19927;SDS011;10126;50.876;4.470;2023-06-24T08:16:25;0.00;;;0.00;;
19927;SDS011;10126;50.876;4.470;2023-06-24T08:18:25;0.00;;;0.00;;
19927;SDS011;10126;50.876;4.470;2023-06-24T08:20:26;0.00;;;0.00;;
19927;SDS011;10126;50.876;4.470;2023-06-24T08:22:27;0.00;;;0.00;;
19927;SDS011;10126;50.876;4.470;2023-06-24T08:24:27;0.00;;;0.00;;
19927;SDS011;10126;50.876;4.470;2023-06-24T08:26:28;0.00;;;0.00;;
19927;SDS011;10126;50.876;4.470;2023-06-24T08:28:28;0.00;;;0.00;;
19927;SDS011;10126;50.876;4.470;2023-06-24T08:30:29;0.00;;;0.00;;
19927;SDS011;10126;50.876;4.470;2023-06-24T08:32:30;0.00;;;0.00;;
19927;SDS011;10126;50.876;4.470;2023-06-24T08:34:30;0.00;;;0.00;;
19927;SDS011;10126;50.876;4.470;2023-06-24T08:36:31;0.00;;;0.00;;
19927;SDS011;10126;50.876;4.470;2023-06-24T08:38:31;0.00;;;0.00;;
19927;SDS011;10126;50.876;4.470;2023-06-24T08:40:32;0.00;;;0.00;;
19927;SDS011;10126;50.876;4.470;2023-06-24T08:42:34;0.00;;;0.00;;
19927;SDS011;10126;50.876;4.470;2023-06-24T08:44:34;0.00;;;0.00;;
19927;SDS011;10126;50.876;4.470;2023-06-24T08:46:35;0.00;;;0.00;;
19927;SDS011;10126;50.876;4.470;2023-06-24T08:48:36;0.00;;;0.00;;
19927;SDS011;10126;50.876;4.470;2023-06-24T08:50:42;0.00;;;0.00;;
19927;SDS011;10126;50.876;4.470;2023-06-24T08:52:48;0.00;;;0.00;;
19927;SDS011;10126;50.876;4.470;2023-06-24T08:54:52;0.00;;;0.00;;
19927;SDS011;10126;50.876;4.470;2023-06-24T08:56:56;0.00;;;0.00;;
19927;SDS011;10126;50.876;4.470;2023-06-24T08:58:57;0.00;;;0.00;;
19927;SDS011;10126;50.876;4.470;2023-06-24T09:00:59;0.00;;;0.00;;
19927;SDS011;10126;50.876;4.470;2023-06-24T09:03:00;0.00;;;0.00;;
19927;SDS011;10126;50.876;4.470;2023-06-24T09:05:01;0.03;;;0.00;;
19927;SDS011;10126;50.876;4.470;2023-06-24T09:07:01;0.00;;;0.00;;
19927;SDS011;10126;50.876;4.470;2023-06-24T09:09:03;0.00;;;0.00;;
19927;SDS011;10126;50.876;4.470;2023-06-24T09:11:04;0.00;;;0.00;;
19927;SDS011;10126;50.876;4.470;2023-06-24T09:13:08;0.00;;;0.00;;
19927;SDS011;10126;50.876;4.470;2023-06-24T09:15:09;0.05;;;0.05;;
19927;SDS011;10126;50.876;4.470;2023-06-24T09:17:15;0.00;;;0.00;;
19927;SDS011;10126;50.876;4.470;2023-06-24T09:19:20;0.00;;;0.00;;
19927;SDS011;10126;50.876;4.470;2023-06-24T09:21:25;0.00;;;0.00;;
19927;SDS011;10126;50.876;4.470;2023-06-24T09:23:27;0.00;;;0.00;;
19927;SDS011;10126;50.876;4.470;2023-06-24T09:25:27;0.00;;;0.00;;
19927;SDS011;10126;50.876;4.470;2023-06-24T09:27:30;0.00;;;0.00;;
19927;SDS011;10126;50.876;4.470;2023-06-24T09:29:33;0.00;;;0.00;;
19927;SDS011;10126;50.876;4.470;2023-06-24T09:31:35;0.00;;;0.00;;
19927;SDS011;10126;50.876;4.470;2023-06-24T09:33:36;0.00;;;0.00;;
19927;SDS011;10126;50.876;4.470;2023-06-24T09:35:36;0.00;;;0.00;;
19927;SDS011;10126;50.876;4.470;2023-06-24T09:37:37;0.00;;;0.00;;
19927;SDS011;10126;50.876;4.470;2023-06-24T09:39:39;0.00;;;0.00;;
19927;SDS011;10126;50.876;4.470;2023-06-24T09:41:40;0.00;;;0.00;;
19927;SDS011;10126;50.876;4.470;2023-06-24T09:43:44;0.00;;;0.00;;
19927;SDS011;10126;50.876;4.470;2023-06-24T09:45:45;0.00;;;0.00;;
19927;SDS011;10126;50.876;4.470;2023-06-24T09:47:49;0.00;;;0.00;;
19927;SDS011;10126;50.876;4.470;2023-06-24T09:49:51;0.00;;;0.00;;
19927;SDS011;10126;50.876;4.470;2023-06-24T09:51:58;0.00;;;0.00;;
19927;SDS011;10126;50.876;4.470;2023-06-24T09:54:01;0.00;;;0.00;;
19927;SDS011;10126;50.876;4.470;2023-06-24T09:56:07;0.00;;;0.00;;
19927;SDS011;10126;50.876;4.470;2023-06-24T09:58:08;0.00;;;0.00;;
19927;SDS011;10126;50.876;4.470;2023-06-24T10:00:14;0.00;;;0.00;;
19927;SDS011;10126;50.876;4.470;2023-06-24T10:02:17;0.00;;;0.00;;
19927;SDS011;10126;50.876;4.470;2023-06-24T10:04:19;0.00;;;0.00;;
19927;SDS011;10126;50.876;4.470;2023-06-24T10:06:22;0.00;;;0.00;;
19927;SDS011;10126;50.876;4.470;2023-06-24T10:08:24;0.00;;;0.00;;
19927;SDS011;10126;50.876;4.470;2023-06-24T10:10:24;0.00;;;0.00;;
19927;SDS011;10126;50.876;4.470;2023-06-24T10:12:25;0.00;;;0.00;;
19927;SDS011;10126;50.876;4.470;2023-06-24T10:14:27;0.00;;;0.00;;
19927;SDS011;10126;50.876;4.470;2023-06-24T10:16:28;0.00;;;0.00;;
19927;SDS011;10126;50.876;4.470;2023-06-24T10:18:35;0.00;;;0.00;;
19927;SDS011;10126;50.876;4.470;2023-06-24T10:20:38;0.00;;;0.00;;
19927;SDS011;10126;50.876;4.470;2023-06-24T10:22:38;0.00;;;0.00;;
19927;SDS011;10126;50.876;4.470;2023-06-24T10:24:40;0.00;;;0.00;;
19927;SDS011;10126;50.876;4.470;2023-06-24T10:26:44;0.00;;;0.00;;
19927;SDS011;10126;50.876;4.470;2023-06-24T10:31:01;0.00;;;0.00;;
19927;SDS011;10126;50.876;4.470;2023-06-24T10:33:02;0.00;;;0.00;;
19927;SDS011;10126;50.876;4.470;2023-06-24T10:35:03;0.00;;;0.00;;
19927;SDS011;10126;50.876;4.470;2023-06-24T10:39:34;0.00;;;0.00;;
19927;SDS011;10126;50.876;4.470;2023-06-24T10:41:35;0.00;;;0.00;;
19927;SDS011;10126;50.876;4.470;2023-06-24T10:43:38;0.00;;;0.00;;
19927;SDS011;10126;50.876;4.470;2023-06-24T10:45:39;0.00;;;0.00;;
19927;SDS011;10126;50.876;4.470;2023-06-24T10:47:50;0.00;;;0.00;;
19927;SDS011;10126;50.876;4.470;2023-06-24T10:49:56;0.00;;;0.00;;
19927;SDS011;10126;50.876;4.470;2023-06-24T10:51:57;0.00;;;0.00;;
19927;SDS011;10126;50.876;4.470;2023-06-24T10:53:57;0.00;;;0.00;;
19927;SDS011;10126;50.876;4.470;2023-06-24T10:55:58;0.00;;;0.00;;
19927;SDS011;10126;50.876;4.470;2023-06-24T10:58:08;0.00;;;0.00;;
19927;SDS011;10126;50.876;4.470;2023-06-24T11:00:10;0.00;;;0.00;;
19927;SDS011;10126;50.876;4.470;2023-06-24T11:02:15;0.00;;;0.00;;
19927;SDS011;10126;50.876;4.470;2023-06-24T11:04:25;0.00;;;0.00;;
19927;SDS011;10126;50.876;4.470;2023-06-24T11:06:26;0.00;;;0.00;;
19927;SDS011;10126;50.876;4.470;2023-06-24T11:08:27;0.00;;;0.00;;
19927;SDS011;10126;50.876;4.470;2023-06-24T11:10:27;0.00;;;0.00;;
19927;SDS011;10126;50.876;4.470;2023-06-24T11:12:30;0.00;;;0.00;;
19927;SDS011;10126;50.876;4.470;2023-06-24T11:14:35;0.00;;;0.00;;
19927;SDS011;10126;50.876;4.470;2023-06-24T11:16:38;0.00;;;0.00;;
19927;SDS011;10126;50.876;4.470;2023-06-24T11:18:39;0.00;;;0.00;;
19927;SDS011;10126;50.876;4.470;2023-06-24T11:20:39;0.00;;;0.00;;
19927;SDS011;10126;50.876;4.470;2023-06-24T11:22:40;0.00;;;0.00;;
19927;SDS011;10126;50.876;4.470;2023-06-24T11:24:42;0.00;;;0.00;;
19927;SDS011;10126;50.876;4.470;2023-06-24T11:26:43;0.00;;;0.00;;
19927;SDS011;10126;50.876;4.470;2023-06-24T11:28:43;0.00;;;0.00;;
19927;SDS011;10126;50.876;4.470;2023-06-24T11:30:44;0.00;;;0.00;;
19927;SDS011;10126;50.876;4.470;2023-06-24T11:32:45;0.00;;;0.00;;
19927;SDS011;10126;50.876;4.470;2023-06-24T11:34:46;0.00;;;0.00;;
19927;SDS011;10126;50.876;4.470;2023-06-24T11:36:47;0.00;;;0.00;;
19927;SDS011;10126;50.876;4.470;2023-06-24T11:38:48;0.00;;;0.00;;
19927;SDS011;10126;50.876;4.470;2023-06-24T11:40:49;0.00;;;0.00;;
19927;SDS011;10126;50.876;4.470;2023-06-24T11:42:50;0.00;;;0.00;;
19927;SDS011;10126;50.876;4.470;2023-06-24T11:44:50;0.00;;;0.00;;
19927;SDS011;10126;50.876;4.470;2023-06-24T11:46:51;0.00;;;0.00;;
19927;SDS011;10126;50.876;4.470;2023-06-24T11:48:57;0.00;;;0.00;;
19927;SDS011;10126;50.876;4.470;2023-06-24T11:51:03;0.00;;;0.00;;
19927;SDS011;10126;50.876;4.470;2023-06-24T11:53:11;0.00;;;0.00;;
19927;SDS011;10126;50.876;4.470;2023-06-24T11:55:13;0.00;;;0.00;;
19927;SDS011;10126;50.876;4.470;2023-06-24T11:57:18;0.00;;;0.00;;
19927;SDS011;10126;50.876;4.470;2023-06-24T11:59:22;0.00;;;0.00;;
19927;SDS011;10126;50.876;4.470;2023-06-24T12:01:30;0.00;;;0.00;;
19927;SDS011;10126;50.876;4.470;2023-06-24T12:03:33;0.00;;;0.00;;
19927;SDS011;10126;50.876;4.470;2023-06-24T12:05:35;0.00;;;0.00;;
19927;SDS011;10126;50.876;4.470;2023-06-24T12:07:36;0.05;;;0.05;;
19927;SDS011;10126;50.876;4.470;2023-06-24T12:09:37;0.00;;;0.00;;
19927;SDS011;10126;50.876;4.470;2023-06-24T12:11:38;0.00;;;0.00;;
19927;SDS011;10126;50.876;4.470;2023-06-24T12:13:39;0.00;;;0.00;;
19927;SDS011;10126;50.876;4.470;2023-06-24T12:15:40;0.00;;;0.00;;
19927;SDS011;10126;50.876;4.470;2023-06-24T12:17:41;0.00;;;0.00;;
19927;SDS011;10126;50.876;4.470;2023-06-24T12:19:42;0.00;;;0.00;;
19927;SDS011;10126;50.876;4.470;2023-06-24T12:21:42;0.00;;;0.00;;
19927;SDS011;10126;50.876;4.470;2023-06-24T12:23:43;0.00;;;0.00;;
19927;SDS011;10126;50.876;4.470;2023-06-24T12:25:44;0.00;;;0.00;;
19927;SDS011;10126;50.876;4.470;2023-06-24T12:27:45;0.00;;;0.00;;
19927;SDS011;10126;50.876;4.470;2023-06-24T12:29:45;0.00;;;0.00;;
19927;SDS011;10126;50.876;4.470;2023-06-24T12:31:46;0.00;;;0.00;;